Terminal Aerodrome Forecast
Issued by NWS Binghamton, NY

Home | Current Version | Previous Version | Text Only | Print | Product List | Glossary On
Versions: 1 2 3 4 5 6 7 8 9 10 11 12 13 14 15
702
FTUS41 KBGM 170536
TAFSYR
TAF
KSYR 170536Z 1706/1806 08003KT P6SM BKN090
      TEMPO 1713/1715 5SM -FZRA OVC040
     FM171500 10006KT 5SM -RA SCT015 OVC035
     FM171800 10008KT 3SM -RA BR OVC015
     FM172000 11008KT 3SM -RA BR OVC008
     FM180200 15006KT 3SM -RA BR OVC008=

USA.gov is the U.S. government's official web portal to all federal, state and local government web resources and services.